Time;durP1;ratioP1;P1;durP2;ratioP2;P2;SDS_P1;SDS_P2;PMS_P1;PMS_P2;Temp;Humidity;BMP_temperature;BMP_pressure;BME280_temperature;BME280_humidity;BME280_pressure;Samples;Min_cycle;Max_cycle;Signal;HPM_P1;HPM_P2
2023/05/16 00:00:05;;;;;;;2.15;0.80;;;;;;;;;;4994923;28;20541;-75
2023/05/16 00:02:31;;;;;;;4.10;1.20;;;;;;;;;;4994911;28;20053;-75
2023/05/16 00:04:56;;;;;;;3.90;0.70;;;;;;;;;;4994646;28;20026;-75
2023/05/16 00:07:22;;;;;;;3.65;0.88;;;;;;;;;;4994972;28;20038;-75
2023/05/16 00:09:47;;;;;;;3.92;1.02;;;;;;;;;;4994831;28;20066;-75
2023/05/16 00:12:13;;;;;;;1.00;0.70;;;;;;;;;;4994674;28;20113;-75
2023/05/16 00:14:38;;;;;;;2.33;1.00;;;;;;;;;;4994640;28;20042;-75
2023/05/16 00:17:10;;;;;;;4.25;1.00;;;;;;;;;;4994778;28;20042;-75
2023/05/16 00:19:36;;;;;;;19.85;1.15;;;;;;;;;;4994303;28;20054;-75
2023/05/16 00:22:03;;;;;;;2.25;0.90;;;;;;;;;;4994815;28;20069;-75
2023/05/16 00:24:28;;;;;;;1.75;1.00;;;;;;;;;;4994150;28;20034;-74
2023/05/16 00:26:53;;;;;;;3.97;1.00;;;;;;;;;;4994823;28;20115;-74
2023/05/16 00:29:19;;;;;;;0.60;0.50;;;;;;;;;;4993896;28;20037;-74
2023/05/16 00:31:44;;;;;;;1.83;1.33;;;;;;;;;;4992847;28;20069;-74
2023/05/16 00:34:10;;;;;;;2.28;0.85;;;;;;;;;;4994118;28;20065;-75
2023/05/16 00:36:35;;;;;;;1.42;0.77;;;;;;;;;;4994349;28;20129;-75
2023/05/16 00:39:00;;;;;;;7.65;1.27;;;;;;;;;;4994583;28;20046;-74
2023/05/16 00:41:26;;;;;;;1.27;0.77;;;;;;;;;;4993827;28;20485;-75
2023/05/16 00:43:52;;;;;;;9.07;0.98;;;;;;;;;;4994602;28;20037;-75
2023/05/16 00:46:17;;;;;;;1.55;0.68;;;;;;;;;;4994267;28;20035;-74
2023/05/16 00:48:42;;;;;;;8.00;0.85;;;;;;;;;;4994379;28;20061;-74
2023/05/16 00:51:08;;;;;;;1.15;0.75;;;;;;;;;;4993847;28;20041;-74
2023/05/16 00:53:35;;;;;;;1.30;0.80;;;;;;;;;;4992609;28;20422;-74
2023/05/16 00:56:00;;;;;;;3.50;1.25;;;;;;;;;;4975599;28;20034;-74
2023/05/16 00:58:27;;;;;;;7.57;1.35;;;;;;;;;;4994034;28;20486;-74
2023/05/16 01:00:52;;;;;;;5.43;0.90;;;;;;;;;;4992525;28;20046;-73
2023/05/16 01:03:18;;;;;;;1.27;0.90;;;;;;;;;;4993976;28;20060;-75
2023/05/16 01:05:43;;;;;;;8.93;0.80;;;;;;;;;;4993395;28;20042;-74
2023/05/16 01:08:09;;;;;;;1.67;0.90;;;;;;;;;;4992901;28;20125;-74
2023/05/16 01:10:57;;;;;;;11.45;1.20;;;;;;;;;;4993198;28;20446;-74
2023/05/16 01:13:52;;;;;;;3.42;0.77;;;;;;;;;;4993879;28;20039;-74
2023/05/16 01:16:28;;;;;;;9.00;1.17;;;;;;;;;;4991424;28;20037;-74
2023/05/16 01:18:57;;;;;;;4.38;0.52;;;;;;;;;;4992682;28;20042;-74
2023/05/16 01:21:44;;;;;;;14.05;0.90;;;;;;;;;;4992010;28;20483;-74
2023/05/16 01:24:20;;;;;;;7.22;1.00;;;;;;;;;;4992539;28;20042;-74
2023/05/16 01:26:45;;;;;;;2.15;0.90;;;;;;;;;;4989051;28;20088;-74
2023/05/16 01:29:11;;;;;;;6.50;1.08;;;;;;;;;;4986792;28;20117;-74
2023/05/16 01:31:36;;;;;;;2.30;1.10;;;;;;;;;;4993540;28;20394;-74
2023/05/16 01:34:02;;;;;;;1.42;0.73;;;;;;;;;;4993746;28;20044;-74
2023/05/16 01:36:54;;;;;;;5.55;1.05;;;;;;;;;;4992777;28;20432;-74
2023/05/16 01:39:31;;;;;;;2.50;0.88;;;;;;;;;;4994854;28;20057;-74
2023/05/16 01:42:16;;;;;;;7.70;0.77;;;;;;;;;;4997124;28;20057;-75
2023/05/16 01:45:02;;;;;;;3.90;0.77;;;;;;;;;;4996016;28;20046;-74
2023/05/16 01:47:29;;;;;;;8.63;1.38;;;;;;;;;;4984182;28;20044;-74
2023/05/16 01:50:11;;;;;;;1.92;0.90;;;;;;;;;;4996257;28;20053;-74
2023/05/16 01:52:41;;;;;;;5.18;1.40;;;;;;;;;;4997353;28;20050;-74
2023/05/16 01:55:11;;;;;;;9.13;1.73;;;;;;;;;;4996115;28;20038;-74
2023/05/16 01:57:37;;;;;;;2.42;1.25;;;;;;;;;;4995746;28;20092;-74
2023/05/16 02:00:03;;;;;;;5.13;0.95;;;;;;;;;;4995493;28;20046;-74
2023/05/16 02:02:30;;;;;;;6.28;0.88;;;;;;;;;;4995965;28;20045;-74
2023/05/16 02:04:55;;;;;;;0.65;0.50;;;;;;;;;;4996680;28;20042;-74
2023/05/16 02:07:21;;;;;;;1.88;1.48;;;;;;;;;;4997137;28;20487;-74
2023/05/16 02:09:46;;;;;;;1.08;0.60;;;;;;;;;;4995730;28;20112;-74
2023/05/16 02:12:12;;;;;;;2.45;0.90;;;;;;;;;;4996765;28;20070;-74
2023/05/16 02:14:37;;;;;;;3.22;0.75;;;;;;;;;;4996926;28;20038;-74
2023/05/16 02:17:02;;;;;;;3.42;0.90;;;;;;;;;;4995861;28;20034;-74
2023/05/16 02:19:28;;;;;;;1.60;0.63;;;;;;;;;;4996615;28;20531;-74
2023/05/16 02:21:53;;;;;;;10.35;1.48;;;;;;;;;;4997128;28;20039;-74
2023/05/16 02:24:19;;;;;;;7.72;1.27;;;;;;;;;;4996654;28;20430;-74
2023/05/16 02:26:44;;;;;;;6.82;0.85;;;;;;;;;;4996176;28;20085;-74
2023/05/16 02:29:10;;;;;;;8.68;1.15;;;;;;;;;;4996400;28;20073;-74
2023/05/16 02:31:35;;;;;;;1.90;0.73;;;;;;;;;;4996692;28;20113;-74
2023/05/16 02:34:01;;;;;;;0.98;0.68;;;;;;;;;;4996877;28;20077;-74
2023/05/16 02:36:27;;;;;;;2.30;0.95;;;;;;;;;;4995388;28;20432;-74
2023/05/16 02:38:52;;;;;;;1.17;0.70;;;;;;;;;;4995723;28;20030;-74
2023/05/16 02:41:18;;;;;;;2.35;0.98;;;;;;;;;;4996003;28;20034;-74
2023/05/16 02:43:43;;;;;;;6.40;1.20;;;;;;;;;;4995590;28;20081;-74
2023/05/16 02:46:30;;;;;;;0.88;0.55;;;;;;;;;;4994050;28;20088;-74
2023/05/16 02:48:55;;;;;;;3.95;0.80;;;;;;;;;;4996543;28;20121;-74
2023/05/16 02:51:22;;;;;;;1.27;0.60;;;;;;;;;;4996177;28;20117;-74
2023/05/16 02:53:48;;;;;;;6.05;0.73;;;;;;;;;;4994961;28;20088;-74
2023/05/16 02:56:13;;;;;;;4.90;0.90;;;;;;;;;;4994659;28;20042;-74
2023/05/16 02:58:39;;;;;;;5.32;0.50;;;;;;;;;;4993718;28;20042;-74
2023/05/16 03:01:04;;;;;;;2.60;1.00;;;;;;;;;;4994701;28;20030;-74
2023/05/16 03:03:30;;;;;;;1.15;0.82;;;;;;;;;;4996114;28;20459;-74
2023/05/16 03:05:55;;;;;;;2.50;0.93;;;;;;;;;;4995755;28;20481;-74
2023/05/16 03:08:20;;;;;;;2.47;0.77;;;;;;;;;;4995615;28;20042;-74
2023/05/16 03:10:46;;;;;;;4.28;1.00;;;;;;;;;;4995605;28;20026;-74
2023/05/16 03:13:11;;;;;;;2.90;0.70;;;;;;;;;;4996022;28;20041;-74
2023/05/16 03:15:37;;;;;;;11.75;1.55;;;;;;;;;;4995858;28;20504;-74
2023/05/16 03:18:02;;;;;;;5.57;1.10;;;;;;;;;;4993231;28;20109;-74
2023/05/16 03:20:28;;;;;;;1.85;0.90;;;;;;;;;;4995460;28;20050;-74
2023/05/16 03:22:53;;;;;;;5.68;0.40;;;;;;;;;;4993966;28;20035;-74
2023/05/16 03:25:18;;;;;;;0.68;0.52;;;;;;;;;;4995740;28;20042;-74
2023/05/16 03:27:44;;;;;;;0.82;0.57;;;;;;;;;;4994252;28;20034;-74
2023/05/16 03:30:09;;;;;;;17.05;1.58;;;;;;;;;;4995462;28;20055;-74
2023/05/16 03:32:36;;;;;;;5.18;0.75;;;;;;;;;;4994074;28;20037;-74
2023/05/16 03:35:02;;;;;;;4.05;1.10;;;;;;;;;;4995429;28;20018;-74
2023/05/16 03:37:28;;;;;;;1.48;0.70;;;;;;;;;;4995698;28;20041;-74
2023/05/16 03:39:53;;;;;;;7.35;0.88;;;;;;;;;;4995125;28;20038;-74
2023/05/16 03:42:19;;;;;;;4.50;0.70;;;;;;;;;;4995704;28;20073;-74
2023/05/16 03:44:44;;;;;;;2.83;0.88;;;;;;;;;;4995019;28;20035;-74
2023/05/16 03:47:10;;;;;;;3.80;0.75;;;;;;;;;;4995251;28;20482;-74
2023/05/16 03:49:38;;;;;;;1.52;0.93;;;;;;;;;;4994989;28;20037;-74
2023/05/16 03:52:04;;;;;;;8.73;1.13;;;;;;;;;;4991846;28;20066;-74
2023/05/16 03:54:29;;;;;;;6.43;0.70;;;;;;;;;;4993654;28;20045;-74
2023/05/16 03:56:55;;;;;;;0.70;0.50;;;;;;;;;;4994451;28;20030;-73
2023/05/16 03:59:20;;;;;;;9.98;0.80;;;;;;;;;;4992936;28;20069;-74
2023/05/16 04:01:46;;;;;;;6.45;1.13;;;;;;;;;;4995122;28;20042;-74
2023/05/16 04:04:13;;;;;;;1.17;0.77;;;;;;;;;;4994731;28;20111;-74
2023/05/16 04:06:38;;;;;;;2.83;0.88;;;;;;;;;;4994852;28;20038;-74
2023/05/16 04:09:05;;;;;;;3.80;1.08;;;;;;;;;;4994549;28;20039;-74
2023/05/16 04:11:31;;;;;;;1.58;1.13;;;;;;;;;;4993325;28;20027;-74
2023/05/16 04:13:56;;;;;;;2.58;1.00;;;;;;;;;;4994984;28;20525;-74
2023/05/16 04:16:22;;;;;;;2.30;0.93;;;;;;;;;;4993424;28;20105;-74
2023/05/16 04:18:47;;;;;;;4.18;0.70;;;;;;;;;;4994874;28;20045;-74
2023/05/16 04:21:14;;;;;;;2.05;0.95;;;;;;;;;;4994645;28;20043;-74
2023/05/16 04:23:40;;;;;;;3.80;0.57;;;;;;;;;;4994574;28;20035;-74
2023/05/16 04:26:05;;;;;;;2.67;0.98;;;;;;;;;;4994427;28;20097;-74
2023/05/16 04:28:31;;;;;;;4.22;0.85;;;;;;;;;;4994542;28;20049;-74
2023/05/16 04:30:56;;;;;;;2.63;1.05;;;;;;;;;;4993030;28;20473;-74
2023/05/16 04:33:22;;;;;;;5.60;0.90;;;;;;;;;;4994494;28;20030;-74
2023/05/16 04:35:47;;;;;;;1.73;1.27;;;;;;;;;;4994365;28;20109;-74
2023/05/16 04:38:12;;;;;;;1.42;0.70;;;;;;;;;;4993787;28;20074;-74
2023/05/16 04:40:40;;;;;;;5.20;1.02;;;;;;;;;;4993365;28;20030;-74
2023/05/16 04:43:06;;;;;;;1.13;0.63;;;;;;;;;;4994125;28;20081;-74
2023/05/16 04:45:32;;;;;;;6.22;0.90;;;;;;;;;;4994006;28;20046;-74
2023/05/16 04:47:57;;;;;;;11.15;1.10;;;;;;;;;;4994419;28;20103;-74
2023/05/16 04:50:22;;;;;;;0.60;0.50;;;;;;;;;;4993791;28;20438;-74
2023/05/16 04:52:48;;;;;;;1.00;0.60;;;;;;;;;;4994025;28;20043;-74
2023/05/16 04:55:13;;;;;;;3.35;1.17;;;;;;;;;;4993725;28;20060;-74
2023/05/16 04:57:39;;;;;;;3.30;0.98;;;;;;;;;;4993779;28;20046;-74
2023/05/16 05:00:10;;;;;;;2.10;0.85;;;;;;;;;;4992673;28;20046;-74
2023/05/16 05:02:37;;;;;;;1.13;0.60;;;;;;;;;;4992182;28;20106;-74
2023/05/16 05:05:03;;;;;;;2.47;1.35;;;;;;;;;;4992224;28;20042;-74
2023/05/16 05:07:28;;;;;;;3.65;0.80;;;;;;;;;;4993995;28;20042;-74
2023/05/16 05:09:54;;;;;;;5.70;0.80;;;;;;;;;;4993069;28;20418;-74
2023/05/16 05:12:20;;;;;;;5.22;1.00;;;;;;;;;;4990685;28;20176;-74
2023/05/16 05:14:46;;;;;;;1.10;0.63;;;;;;;;;;4993761;28;20461;-75
2023/05/16 05:17:11;;;;;;;1.85;0.80;;;;;;;;;;4994049;28;20165;-75
2023/05/16 05:19:37;;;;;;;1.77;0.73;;;;;;;;;;4991274;28;20034;-75
2023/05/16 05:22:02;;;;;;;2.50;0.70;;;;;;;;;;4989565;28;20061;-75
2023/05/16 05:24:27;;;;;;;10.18;1.17;;;;;;;;;;4990308;28;20030;-75
2023/05/16 05:26:53;;;;;;;3.85;1.20;;;;;;;;;;4993642;28;20044;-75
2023/05/16 05:29:18;;;;;;;44.17;2.35;;;;;;;;;;4993327;28;20089;-75
2023/05/16 05:31:43;;;;;;;174.18;8.52;;;;;;;;;;4993731;28;20141;-75
2023/05/16 05:34:09;;;;;;;215.38;9.55;;;;;;;;;;4993626;28;20049;-75
2023/05/16 05:36:34;;;;;;;28.73;1.85;;;;;;;;;;4993682;28;20041;-75
2023/05/16 05:38:59;;;;;;;8.60;1.15;;;;;;;;;;4993425;28;20394;-75
2023/05/16 05:41:26;;;;;;;4.75;1.05;;;;;;;;;;4993060;28;20085;-75
2023/05/16 05:43:51;;;;;;;2.67;1.10;;;;;;;;;;4993538;28;20046;-75
2023/05/16 05:46:17;;;;;;;2.20;0.85;;;;;;;;;;4993344;28;20121;-75
2023/05/16 05:48:42;;;;;;;3.67;1.17;;;;;;;;;;4992110;28;20053;-75
2023/05/16 05:51:07;;;;;;;2.53;0.82;;;;;;;;;;4993537;28;20046;-77
2023/05/16 05:53:33;;;;;;;1.73;0.90;;;;;;;;;;4993446;28;20483;-76
2023/05/16 05:55:58;;;;;;;1.45;1.00;;;;;;;;;;4993329;28;20054;-76
2023/05/16 05:58:24;;;;;;;2.85;1.00;;;;;;;;;;4993258;28;20042;-76
2023/05/16 06:00:49;;;;;;;4.97;1.08;;;;;;;;;;4993037;28;20038;-75
2023/05/16 06:03:15;;;;;;;1.63;0.80;;;;;;;;;;4990066;28;20042;-76
2023/05/16 06:05:41;;;;;;;3.20;0.90;;;;;;;;;;4984715;28;20076;-76
2023/05/16 06:08:06;;;;;;;1.50;0.70;;;;;;;;;;4993331;28;20038;-76
2023/05/16 06:10:31;;;;;;;3.20;0.90;;;;;;;;;;4992804;28;20038;-76
2023/05/16 06:12:57;;;;;;;3.97;1.00;;;;;;;;;;4992656;28;20037;-75
2023/05/16 06:15:23;;;;;;;1.92;0.80;;;;;;;;;;4990105;28;20402;-74
2023/05/16 06:17:49;;;;;;;4.35;0.98;;;;;;;;;;4992051;28;20065;-76
2023/05/16 06:20:14;;;;;;;1.90;0.90;;;;;;;;;;4993214;28;20038;-76
2023/05/16 06:22:40;;;;;;;2.97;0.80;;;;;;;;;;4996838;28;20033;-76
2023/05/16 06:25:05;;;;;;;2.55;0.80;;;;;;;;;;4996870;28;20038;-76
2023/05/16 06:27:31;;;;;;;2.72;0.85;;;;;;;;;;4997032;28;20411;-77
2023/05/16 06:29:56;;;;;;;2.80;0.90;;;;;;;;;;4996781;28;20038;-77
2023/05/16 06:32:21;;;;;;;2.08;0.82;;;;;;;;;;4996695;28;20042;-75
2023/05/16 06:34:47;;;;;;;3.78;1.00;;;;;;;;;;4996539;28;20049;-74
2023/05/16 06:37:13;;;;;;;3.22;0.90;;;;;;;;;;4996949;28;20508;-75
2023/05/16 06:39:38;;;;;;;3.28;1.02;;;;;;;;;;4996500;28;20577;-76
2023/05/16 06:42:04;;;;;;;2.72;0.82;;;;;;;;;;4996562;28;20042;-75
2023/05/16 06:44:29;;;;;;;2.75;0.90;;;;;;;;;;4993690;28;20092;-75
2023/05/16 06:46:54;;;;;;;2.05;0.95;;;;;;;;;;4984792;28;20501;-76
2023/05/16 06:49:20;;;;;;;2.47;0.80;;;;;;;;;;4993313;28;20030;-76
2023/05/16 06:51:45;;;;;;;1.13;0.70;;;;;;;;;;4995448;28;20038;-76
2023/05/16 06:54:11;;;;;;;2.40;1.00;;;;;;;;;;4996476;28;20388;-76
2023/05/16 06:56:36;;;;;;;3.33;1.00;;;;;;;;;;4996035;28;20034;-75
2023/05/16 06:59:01;;;;;;;3.45;1.10;;;;;;;;;;4994988;28;20054;-76
2023/05/16 07:01:27;;;;;;;2.42;1.00;;;;;;;;;;4994927;28;20429;-76
2023/05/16 07:03:53;;;;;;;3.28;1.20;;;;;;;;;;4996016;28;20049;-76
2023/05/16 07:06:18;;;;;;;2.83;1.10;;;;;;;;;;4994959;28;20085;-76
2023/05/16 07:08:43;;;;;;;2.85;1.02;;;;;;;;;;4995804;28;20383;-75
2023/05/16 07:11:10;;;;;;;3.88;1.08;;;;;;;;;;4996099;28;20038;-77
2023/05/16 07:13:36;;;;;;;3.03;1.00;;;;;;;;;;4994364;28;20109;-76
2023/05/16 07:16:01;;;;;;;5.15;1.13;;;;;;;;;;4995811;28;20122;-77
2023/05/16 07:18:27;;;;;;;3.08;1.33;;;;;;;;;;4995590;28;20101;-76
2023/05/16 07:20:53;;;;;;;2.95;1.17;;;;;;;;;;4994109;28;20041;-76
2023/05/16 07:23:18;;;;;;;3.83;1.42;;;;;;;;;;4993879;28;20042;-76
2023/05/16 07:25:43;;;;;;;4.60;1.17;;;;;;;;;;4995467;28;20084;-76
2023/05/16 07:28:09;;;;;;;5.45;1.35;;;;;;;;;;4995190;28;20399;-75
2023/05/16 07:30:35;;;;;;;4.25;1.25;;;;;;;;;;4989586;28;20042;-76
2023/05/16 07:33:00;;;;;;;5.30;1.10;;;;;;;;;;4993559;28;20482;-76
2023/05/16 07:35:25;;;;;;;6.57;0.98;;;;;;;;;;4995396;28;20041;-76
2023/05/16 07:37:51;;;;;;;4.30;1.17;;;;;;;;;;4993101;28;20074;-76
2023/05/16 07:40:17;;;;;;;5.43;1.20;;;;;;;;;;4995606;28;20501;-75
2023/05/16 07:42:43;;;;;;;3.90;0.90;;;;;;;;;;4995038;28;20038;-76
2023/05/16 07:45:08;;;;;;;3.25;1.13;;;;;;;;;;4994351;28;20077;-76
2023/05/16 07:47:34;;;;;;;5.03;1.40;;;;;;;;;;4995072;28;20475;-76
2023/05/16 07:50:00;;;;;;;4.47;1.20;;;;;;;;;;4994356;28;20022;-76
2023/05/16 07:52:25;;;;;;;3.38;1.00;;;;;;;;;;4994268;28;20093;-76
2023/05/16 07:54:50;;;;;;;5.07;1.48;;;;;;;;;;4993898;28;20042;-76
2023/05/16 07:57:16;;;;;;;5.13;1.20;;;;;;;;;;4992223;28;20050;-76
2023/05/16 07:59:42;;;;;;;3.13;1.00;;;;;;;;;;4993230;28;20049;-76
2023/05/16 08:02:09;;;;;;;9.75;1.50;;;;;;;;;;4993822;28;20077;-76
2023/05/16 08:04:34;;;;;;;5.38;1.38;;;;;;;;;;4994302;28;20039;-75
2023/05/16 08:07:00;;;;;;;4.32;1.10;;;;;;;;;;4987410;28;20093;-77
2023/05/16 08:09:25;;;;;;;2.53;1.10;;;;;;;;;;4990729;28;21599;-76
2023/05/16 08:11:51;;;;;;;5.03;1.00;;;;;;;;;;4987887;28;20129;-76
2023/05/16 08:14:17;;;;;;;4.55;1.17;;;;;;;;;;4992220;28;20049;-78
2023/05/16 08:16:43;;;;;;;6.47;1.38;;;;;;;;;;4993843;28;20074;-78
2023/05/16 08:19:08;;;;;;;6.68;1.30;;;;;;;;;;4993413;28;20076;-78
2023/05/16 08:21:33;;;;;;;6.82;1.48;;;;;;;;;;4994438;28;20042;-76
2023/05/16 08:23:59;;;;;;;4.15;1.38;;;;;;;;;;4994745;28;20069;-76
2023/05/16 08:26:25;;;;;;;6.32;1.40;;;;;;;;;;4994658;28;20029;-77
2023/05/16 08:28:51;;;;;;;3.08;1.20;;;;;;;;;;4992715;28;20053;-76
2023/05/16 08:31:16;;;;;;;4.20;1.13;;;;;;;;;;4993643;28;20042;-77
2023/05/16 08:33:42;;;;;;;4.75;1.55;;;;;;;;;;4993925;28;20058;-76
2023/05/16 08:36:09;;;;;;;4.03;1.20;;;;;;;;;;4994362;28;20438;-77
2023/05/16 08:38:34;;;;;;;4.63;1.40;;;;;;;;;;4993271;28;20061;-77
2023/05/16 08:41:00;;;;;;;5.50;1.20;;;;;;;;;;4993038;28;20478;-76
2023/05/16 08:43:25;;;;;;;6.55;1.45;;;;;;;;;;4992919;28;20034;-77
2023/05/16 08:45:50;;;;;;;9.75;1.80;;;;;;;;;;4994039;28;20042;-76
2023/05/16 08:48:20;;;;;;;4.22;1.50;;;;;;;;;;4994505;28;20435;-77
2023/05/16 08:50:46;;;;;;;6.28;1.50;;;;;;;;;;4994202;28;20065;-76
2023/05/16 08:53:14;;;;;;;5.07;1.38;;;;;;;;;;4994457;28;20598;-78
2023/05/16 08:55:40;;;;;;;3.67;1.20;;;;;;;;;;4985542;28;20092;-76
2023/05/16 08:58:05;;;;;;;5.93;1.50;;;;;;;;;;4992787;28;20494;-78
2023/05/16 09:00:31;;;;;;;3.80;1.02;;;;;;;;;;4992913;28;20073;-77
2023/05/16 09:02:56;;;;;;;3.15;1.42;;;;;;;;;;4992945;28;20557;-79
2023/05/16 09:05:22;;;;;;;3.97;1.30;;;;;;;;;;4993707;28;20104;-77
2023/05/16 09:07:48;;;;;;;5.30;1.48;;;;;;;;;;4986761;28;20046;-75
2023/05/16 09:10:14;;;;;;;4.80;1.33;;;;;;;;;;4990839;28;20030;-78
2023/05/16 09:12:40;;;;;;;5.75;1.42;;;;;;;;;;4991936;28;20394;-78
2023/05/16 09:15:07;;;;;;;5.55;1.30;;;;;;;;;;4990979;28;20046;-78
2023/05/16 09:17:37;;;;;;;5.35;1.50;;;;;;;;;;4992668;28;20030;-77
2023/05/16 09:20:12;;;;;;;3.95;1.55;;;;;;;;;;4991668;28;20042;-78
2023/05/16 09:22:39;;;;;;;7.45;2.00;;;;;;;;;;4992617;28;20048;-76
2023/05/16 09:25:04;;;;;;;5.38;1.52;;;;;;;;;;4991156;28;20038;-75
2023/05/16 09:27:30;;;;;;;4.38;1.40;;;;;;;;;;4991738;28;20033;-75
2023/05/16 09:29:57;;;;;;;5.93;1.40;;;;;;;;;;4991369;28;20479;-75
2023/05/16 09:32:23;;;;;;;5.35;1.27;;;;;;;;;;4992781;28;20042;-76
2023/05/16 09:34:50;;;;;;;8.50;2.15;;;;;;;;;;4992059;28;20049;-75
2023/05/16 09:37:19;;;;;;;4.97;1.75;;;;;;;;;;4991490;28;20043;-75
2023/05/16 09:39:46;;;;;;;6.63;1.90;;;;;;;;;;4991357;28;20050;-75
2023/05/16 09:42:13;;;;;;;7.90;2.03;;;;;;;;;;4991783;28;20058;-76
2023/05/16 09:44:38;;;;;;;4.63;1.85;;;;;;;;;;4982307;28;20046;-76
2023/05/16 09:47:04;;;;;;;5.55;1.75;;;;;;;;;;4992301;28;20061;-76
2023/05/16 09:49:30;;;;;;;6.97;1.95;;;;;;;;;;4992575;28;20387;-75
2023/05/16 09:51:55;;;;;;;4.45;2.10;;;;;;;;;;4987283;28;20050;-75
2023/05/16 09:54:33;;;;;;;3.55;1.45;;;;;;;;;;4992717;28;20046;-76
2023/05/16 09:56:59;;;;;;;7.55;1.90;;;;;;;;;;4992716;28;20456;-75
2023/05/16 09:59:27;;;;;;;3.90;1.83;;;;;;;;;;4996694;28;20125;-76
2023/05/16 10:01:53;;;;;;;5.40;1.52;;;;;;;;;;4995037;28;20085;-76
2023/05/16 10:04:18;;;;;;;4.80;1.83;;;;;;;;;;4996059;28;20046;-76
2023/05/16 10:06:44;;;;;;;3.25;1.48;;;;;;;;;;4994695;28;20116;-76
2023/05/16 10:09:11;;;;;;;7.88;2.38;;;;;;;;;;4995794;28;20040;-75
2023/05/16 10:11:41;;;;;;;4.78;1.88;;;;;;;;;;4996306;28;20137;-75
2023/05/16 10:14:09;;;;;;;8.60;1.80;;;;;;;;;;4996282;28;20046;-76
2023/05/16 10:16:34;;;;;;;4.85;1.42;;;;;;;;;;4994715;28;20036;-75
2023/05/16 10:19:02;;;;;;;5.53;1.70;;;;;;;;;;4995744;28;20401;-76
2023/05/16 10:21:28;;;;;;;3.75;1.83;;;;;;;;;;4987029;28;20046;-76
2023/05/16 10:23:56;;;;;;;7.15;2.28;;;;;;;;;;4988265;28;20034;-76
2023/05/16 10:26:22;;;;;;;5.35;1.95;;;;;;;;;;4993479;28;20394;-76
2023/05/16 10:28:48;;;;;;;5.80;1.67;;;;;;;;;;4994528;28;20130;-76
2023/05/16 10:31:14;;;;;;;7.07;1.90;;;;;;;;;;4991762;28;20475;-76
2023/05/16 10:33:40;;;;;;;4.10;1.70;;;;;;;;;;4995485;28;20038;-77
2023/05/16 10:36:09;;;;;;;4.40;1.80;;;;;;;;;;4994681;28;20042;-78
2023/05/16 10:38:35;;;;;;;5.60;1.77;;;;;;;;;;4993839;28;20038;-78
2023/05/16 10:41:01;;;;;;;6.47;2.00;;;;;;;;;;4994731;28;20493;-78
2023/05/16 10:43:29;;;;;;;7.97;1.80;;;;;;;;;;4995589;28;20045;-77
2023/05/16 10:46:02;;;;;;;5.03;1.73;;;;;;;;;;4994289;28;20066;-76
2023/05/16 10:48:33;;;;;;;6.10;1.83;;;;;;;;;;4993796;28;20077;-77
2023/05/16 10:50:59;;;;;;;6.25;2.10;;;;;;;;;;4995144;28;20493;-76
2023/05/16 10:53:27;;;;;;;3.63;1.88;;;;;;;;;;4994999;28;20038;-77
2023/05/16 10:55:56;;;;;;;4.43;1.60;;;;;;;;;;4995431;28;20050;-77
2023/05/16 10:58:41;;;;;;;6.72;1.92;;;;;;;;;;4985172;28;20058;-76
2023/05/16 11:01:26;;;;;;;6.22;1.92;;;;;;;;;;4993889;28;20038;-76
2023/05/16 11:04:01;;;;;;;6.57;1.90;;;;;;;;;;4987276;28;20034;-76
2023/05/16 11:06:41;;;;;;;4.63;1.70;;;;;;;;;;4991247;28;20042;-76
2023/05/16 11:09:13;;;;;;;3.92;1.92;;;;;;;;;;4994093;28;20042;-76
2023/05/16 11:11:50;;;;;;;5.68;1.90;;;;;;;;;;4995002;28;20050;-76
2023/05/16 11:14:46;;;;;;;4.32;1.85;;;;;;;;;;4995111;28;20041;-77
2023/05/16 11:17:20;;;;;;;5.70;2.08;;;;;;;;;;4967550;28;20051;-76
2023/05/16 11:19:48;;;;;;;;;;;;;;;;;;4990380;28;20030;-77
2023/05/16 11:22:22;;;;;;;7.38;1.98;;;;;;;;;;4994750;28;19957;-77
2023/05/16 11:25:07;;;;;;;3.40;1.77;;;;;;;;;;4994414;28;20508;-76
2023/05/16 11:27:34;;;;;;;7.82;1.98;;;;;;;;;;4994768;28;20058;-77
2023/05/16 11:30:05;;;;;;;5.03;1.75;;;;;;;;;;4993281;28;20042;-76
2023/05/16 11:32:34;;;;;;;4.57;2.08;;;;;;;;;;4974898;28;20045;-76
2023/05/16 11:35:03;;;;;;;4.97;2.10;;;;;;;;;;4976431;28;20127;-77
2023/05/16 11:37:29;;;;;;;5.38;2.00;;;;;;;;;;4987805;28;20469;-76
2023/05/16 11:39:59;;;;;;;4.72;1.92;;;;;;;;;;4989895;28;20066;-76
2023/05/16 11:42:28;;;;;;;7.72;2.70;;;;;;;;;;4975806;28;20050;-76
2023/05/16 11:45:13;;;;;;;5.10;1.95;;;;;;;;;;4992850;28;20474;-77
2023/05/16 11:47:39;;;;;;;8.55;1.95;;;;;;;;;;4992654;28;20038;-76
2023/05/16 11:50:16;;;;;;;3.85;1.60;;;;;;;;;;4991469;28;20050;-77
2023/05/16 11:52:47;;;;;;;4.18;1.73;;;;;;;;;;5003668;28;20046;-76
2023/05/16 11:55:13;;;;;;;6.72;1.98;;;;;;;;;;4989741;28;20030;-76
2023/05/16 11:57:40;;;;;;;4.70;2.08;;;;;;;;;;4987705;28;20073;-76
2023/05/16 12:00:20;;;;;;;7.57;2.22;;;;;;;;;;4989409;28;20117;-76
2023/05/16 12:02:47;;;;;;;4.30;2.10;;;;;;;;;;4991499;28;20486;-76
2023/05/16 12:05:13;;;;;;;8.52;2.00;;;;;;;;;;4992584;28;20038;-76
2023/05/16 12:07:40;;;;;;;13.00;2.15;;;;;;;;;;5003193;28;20512;-76
2023/05/16 12:10:07;;;;;;;4.57;2.08;;;;;;;;;;4986241;28;20112;-76
2023/05/16 12:12:34;;;;;;;5.35;2.17;;;;;;;;;;4989293;28;20050;-77
2023/05/16 12:15:00;;;;;;;8.40;2.22;;;;;;;;;;4990088;28;20042;-76
2023/05/16 12:17:25;;;;;;;8.75;1.80;;;;;;;;;;4984644;28;20039;-76
2023/05/16 12:19:51;;;;;;;7.15;1.77;;;;;;;;;;4990008;28;20537;-76
2023/05/16 12:22:19;;;;;;;6.68;1.75;;;;;;;;;;4983976;28;20165;-76
2023/05/16 12:24:45;;;;;;;3.00;1.40;;;;;;;;;;4990661;28;20030;-76
2023/05/16 12:27:11;;;;;;;8.90;2.13;;;;;;;;;;4986585;28;20061;-76
2023/05/16 12:29:36;;;;;;;5.68;1.60;;;;;;;;;;4987261;28;21533;-76
2023/05/16 12:32:03;;;;;;;10.23;2.20;;;;;;;;;;4978804;28;20034;-76
2023/05/16 12:34:29;;;;;;;5.10;1.92;;;;;;;;;;4991914;28;20049;-76
2023/05/16 12:36:54;;;;;;;4.32;1.88;;;;;;;;;;4990828;28;20047;-76
2023/05/16 12:39:20;;;;;;;4.13;1.90;;;;;;;;;;4988098;28;20398;-77
2023/05/16 12:41:45;;;;;;;7.05;2.25;;;;;;;;;;4987475;28;20038;-76
2023/05/16 12:44:15;;;;;;;5.70;1.60;;;;;;;;;;4981510;28;20462;-77
2023/05/16 12:46:54;;;;;;;6.47;1.83;;;;;;;;;;4989157;28;20486;-76
2023/05/16 12:49:21;;;;;;;4.35;1.80;;;;;;;;;;4989471;28;20113;-76
2023/05/16 12:51:51;;;;;;;3.80;1.83;;;;;;;;;;4989809;28;20046;-76
2023/05/16 12:54:17;;;;;;;5.13;1.92;;;;;;;;;;4989657;28;20476;-76
2023/05/16 12:56:43;;;;;;;4.45;1.80;;;;;;;;;;4990932;28;20053;-76
2023/05/16 12:59:08;;;;;;;6.03;1.60;;;;;;;;;;4991374;28;20050;-77
2023/05/16 13:01:34;;;;;;;4.00;1.63;;;;;;;;;;4989498;28;20028;-76
2023/05/16 13:04:00;;;;;;;7.03;2.42;;;;;;;;;;4990343;28;20410;-76
2023/05/16 13:06:27;;;;;;;4.38;1.63;;;;;;;;;;4992098;28;20038;-76
2023/05/16 13:08:52;;;;;;;5.90;2.30;;;;;;;;;;4990713;28;20088;-76
2023/05/16 13:11:18;;;;;;;5.45;2.00;;;;;;;;;;4989705;28;20038;-76
2023/05/16 13:13:43;;;;;;;4.00;1.73;;;;;;;;;;4990318;28;20104;-76
2023/05/16 13:16:09;;;;;;;4.32;1.70;;;;;;;;;;4990280;28;20033;-76
2023/05/16 13:18:35;;;;;;;9.00;2.05;;;;;;;;;;4990464;28;20398;-76
2023/05/16 13:21:02;;;;;;;5.53;2.30;;;;;;;;;;4991886;28;20140;-76
2023/05/16 13:23:28;;;;;;;6.60;2.03;;;;;;;;;;4991747;28;20033;-76
2023/05/16 13:25:54;;;;;;;3.88;1.85;;;;;;;;;;4991619;28;20034;-76
2023/05/16 13:28:19;;;;;;;5.80;2.20;;;;;;;;;;4988337;28;20038;-76
2023/05/16 13:30:45;;;;;;;8.18;2.30;;;;;;;;;;4985263;28;20117;-76
2023/05/16 13:33:11;;;;;;;5.22;2.30;;;;;;;;;;4978610;28;20123;-76
2023/05/16 13:35:37;;;;;;;6.72;2.25;;;;;;;;;;4989699;28;20077;-76
2023/05/16 13:38:02;;;;;;;8.05;2.00;;;;;;;;;;4990394;28;20030;-76
2023/05/16 13:40:28;;;;;;;9.98;2.38;;;;;;;;;;4984287;28;20031;-76
2023/05/16 13:42:53;;;;;;;4.22;2.00;;;;;;;;;;4990394;28;20069;-76
2023/05/16 13:45:19;;;;;;;6.53;2.58;;;;;;;;;;4991288;28;20033;-76
2023/05/16 13:47:44;;;;;;;5.60;2.05;;;;;;;;;;4990712;28;20399;-77
2023/05/16 13:50:11;;;;;;;8.75;2.40;;;;;;;;;;4991186;28;20066;-77
2023/05/16 13:52:37;;;;;;;7.88;2.95;;;;;;;;;;4985820;28;20056;-77
2023/05/16 13:55:02;;;;;;;5.43;2.30;;;;;;;;;;4989394;28;20046;-77
2023/05/16 13:57:28;;;;;;;8.00;2.17;;;;;;;;;;4990161;28;20061;-77
2023/05/16 13:59:53;;;;;;;5.95;2.40;;;;;;;;;;4991020;28;20434;-77
2023/05/16 14:02:19;;;;;;;6.32;2.22;;;;;;;;;;4991939;28;20034;-77
2023/05/16 14:04:44;;;;;;;5.30;2.00;;;;;;;;;;4988653;28;20703;-77
2023/05/16 14:07:10;;;;;;;4.90;2.05;;;;;;;;;;4991356;28;20363;-77
2023/05/16 14:09:38;;;;;;;5.15;2.40;;;;;;;;;;4989975;28;20088;-77
2023/05/16 14:12:06;;;;;;;6.32;2.30;;;;;;;;;;4989010;28;20064;-77
2023/05/16 14:14:32;;;;;;;5.43;2.45;;;;;;;;;;4991471;28;20042;-77
2023/05/16 14:16:58;;;;;;;8.43;2.35;;;;;;;;;;4991086;28;20519;-77
2023/05/16 14:19:23;;;;;;;8.63;2.58;;;;;;;;;;4989438;28;20434;-77
2023/05/16 14:21:48;;;;;;;9.02;2.53;;;;;;;;;;5014080;28;20045;-77
2023/05/16 14:24:14;;;;;;;4.47;2.05;;;;;;;;;;4989975;28;20034;-77
2023/05/16 14:26:40;;;;;;;7.65;2.35;;;;;;;;;;4983898;28;20499;-77
2023/05/16 14:29:05;;;;;;;6.65;2.63;;;;;;;;;;4987529;28;20041;-74
2023/05/16 14:31:31;;;;;;;6.75;2.42;;;;;;;;;;4989531;28;20110;-74
2023/05/16 14:33:57;;;;;;;7.32;2.40;;;;;;;;;;4991343;28;20042;-77
2023/05/16 14:36:23;;;;;;;7.47;2.40;;;;;;;;;;4991095;28;20038;-74
2023/05/16 14:38:48;;;;;;;4.53;2.15;;;;;;;;;;4991279;28;20042;-74
2023/05/16 14:41:14;;;;;;;7.50;2.30;;;;;;;;;;4990769;28;20042;-75